This is the latest recevied weather packets stored in our database for station/object KD2FKI. If no packets are shown the sender has not sent any weather packets the latest 10 day(s).
| Time | Temp. | Humidity | Pressure | Rain* | Wind** | Luminosity | Snow |
|---|---|---|---|---|---|---|---|
| 1777635035 | 6.11° C | 92% | - | 0 mm | - | - | - |
| 1777634441 | 5.56° C | 93% | - | 0 mm | - | - | - |
| 1777633832 | 5° C | 93% | - | 0 mm | - | - | - |
| 1777633240 | 5° C | 93% | - | 0 mm | - | - | - |
| 1777632647 | 5° C | 93% | - | 0 mm | - | - | - |
| 1777632060 | 5° C | 92% | - | 0 mm | - | - | - |
| 1777631463 | 5° C | 90% | - | 0 mm | - | - | - |
| 1777630834 | 5.56° C | 88% | - | 0 mm | - | - | - |
| 1777630243 | 5.56° C | 87% | - | 0 mm | - | - | - |
| 1777629632 | 6.11° C | 86% | - | 0 mm | - | - | - |
| 1777629040 | 6.11° C | 86% | - | 0 mm | - | - | - |
| 1777628430 | 6.11° C | 85% | - | 0 mm | - | - | - |
| 1777627837 | 6.11° C | 85% | - | 0 mm | - | - | - |
| 1777627245 | 6.11° C | 86% | - | 0 mm | - | - | - |
| 1777626655 | 5.56° C | 88% | - | 0 mm | - | - | - |
| 1777626043 | 5° C | 91% | - | 0 mm | - | - | - |
| 1777625432 | 5° C | 90% | - | 0 mm | - | - | - |
| 1777624840 | 5° C | 88% | - | 0 mm | - | - | - |
| 1777624231 | 5.56° C | 87% | - | 0 mm | - | - | - |
| 1777623638 | 6.11° C | 85% | - | 0 mm | - | - | - |
| 1777623046 | 6.11° C | 85% | - | 0 mm | - | - | - |
| 1777622435 | 6.11° C | 85% | - | 0 mm | - | - | - |
| 1777621843 | 5.56° C | 90% | - | 0 mm | - | - | - |
| 1777621233 | 3.89° C | 97% | - | 0 mm | - | - | - |
| 1777620641 | 3.89° C | 97% | - | 0 mm | - | - | - |
* Rain latest hour (hover to see other rain measurements)
** Current wind speed in m/s (hover to see current wind gust speed)